sensor_id;sensor_type;location;lat;lon;timestamp;pressure;altitude;pressure_sealevel;temperature;humidity
12349;BME280;5974;42.710;27.258;2023-06-22T00:01:13;100340.31;;;18.93;100.00
12349;BME280;5974;42.710;27.258;2023-06-22T00:03:40;100338.59;;;19.05;100.00
12349;BME280;5974;42.710;27.258;2023-06-22T00:06:07;100335.22;;;19.03;100.00
12349;BME280;5974;42.710;27.258;2023-06-22T00:08:33;100336.69;;;19.07;100.00
12349;BME280;5974;42.710;27.258;2023-06-22T00:11:00;100344.22;;;19.13;100.00
12349;BME280;5974;42.710;27.258;2023-06-22T00:13:27;100343.13;;;19.15;100.00
12349;BME280;5974;42.710;27.258;2023-06-22T00:15:55;100348.09;;;19.20;100.00
12349;BME280;5974;42.710;27.258;2023-06-22T00:18:22;100334.16;;;19.05;100.00
12349;BME280;5974;42.710;27.258;2023-06-22T00:20:53;100339.44;;;19.05;100.00
12349;BME280;5974;42.710;27.258;2023-06-22T00:23:23;100351.63;;;19.08;100.00
12349;BME280;5974;42.710;27.258;2023-06-22T00:25:51;100349.41;;;19.02;100.00
12349;BME280;5974;42.710;27.258;2023-06-22T00:28:18;100357.06;;;18.93;100.00
12349;BME280;5974;42.710;27.258;2023-06-22T00:30:45;100358.78;;;18.94;100.00
12349;BME280;5974;42.710;27.258;2023-06-22T00:33:14;100364.59;;;18.87;100.00
12349;BME280;5974;42.710;27.258;2023-06-22T00:35:41;100348.44;;;18.66;100.00
12349;BME280;5974;42.710;27.258;2023-06-22T00:38:08;100332.75;;;18.63;100.00
12349;BME280;5974;42.710;27.258;2023-06-22T00:40:35;100365.97;;;18.92;100.00
12349;BME280;5974;42.710;27.258;2023-06-22T00:43:03;100303.63;;;18.51;100.00
12349;BME280;5974;42.710;27.258;2023-06-22T00:45:30;100353.50;;;18.69;100.00
12349;BME280;5974;42.710;27.258;2023-06-22T00:47:58;100366.13;;;18.66;100.00
12349;BME280;5974;42.710;27.258;2023-06-22T00:50:29;100372.97;;;18.30;100.00
12349;BME280;5974;42.710;27.258;2023-06-22T00:53:00;100383.16;;;18.74;100.00
12349;BME280;5974;42.710;27.258;2023-06-22T00:55:30;100377.84;;;19.00;100.00
12349;BME280;5974;42.710;27.258;2023-06-22T00:57:57;100377.78;;;19.25;100.00
12349;BME280;5974;42.710;27.258;2023-06-22T01:00:24;100370.47;;;19.28;100.00
12349;BME280;5974;42.710;27.258;2023-06-22T01:02:51;100376.72;;;19.40;100.00
12349;BME280;5974;42.710;27.258;2023-06-22T01:05:19;100378.91;;;19.46;100.00
12349;BME280;5974;42.710;27.258;2023-06-22T01:07:58;100378.78;;;19.35;100.00
12349;BME280;5974;42.710;27.258;2023-06-22T01:10:31;100379.47;;;19.26;100.00
12349;BME280;5974;42.710;27.258;2023-06-22T01:13:03;100371.84;;;19.58;100.00
12349;BME280;5974;42.710;27.258;2023-06-22T01:15:35;100367.91;;;19.63;100.00
12349;BME280;5974;42.710;27.258;2023-06-22T01:18:04;100368.03;;;19.62;100.00
12349;BME280;5974;42.710;27.258;2023-06-22T01:20:34;100360.34;;;19.46;100.00
12349;BME280;5974;42.710;27.258;2023-06-22T01:23:14;100336.59;;;19.32;100.00
12349;BME280;5974;42.710;27.258;2023-06-22T01:25:47;100358.88;;;19.42;100.00
12349;BME280;5974;42.710;27.258;2023-06-22T01:28:24;100359.69;;;19.06;100.00
12349;BME280;5974;42.710;27.258;2023-06-22T01:30:54;100369.19;;;18.85;100.00
12349;BME280;5974;42.710;27.258;2023-06-22T01:33:33;100378.25;;;19.06;100.00
12349;BME280;5974;42.710;27.258;2023-06-22T01:36:01;100374.16;;;19.26;100.00
12349;BME280;5974;42.710;27.258;2023-06-22T01:38:30;100360.56;;;19.07;100.00
12349;BME280;5974;42.710;27.258;2023-06-22T01:40:57;100386.97;;;18.95;100.00
12349;BME280;5974;42.710;27.258;2023-06-22T01:43:26;100381.06;;;18.67;100.00
12349;BME280;5974;42.710;27.258;2023-06-22T01:45:55;100386.97;;;18.83;100.00
12349;BME280;5974;42.710;27.258;2023-06-22T01:48:23;100383.78;;;18.90;100.00
12349;BME280;5974;42.710;27.258;2023-06-22T01:50:51;100338.13;;;18.74;100.00
12349;BME280;5974;42.710;27.258;2023-06-22T01:53:20;100388.44;;;19.00;100.00
12349;BME280;5974;42.710;27.258;2023-06-22T01:55:48;100393.31;;;18.93;100.00
12349;BME280;5974;42.710;27.258;2023-06-22T01:58:15;100370.47;;;18.67;100.00
12349;BME280;5974;42.710;27.258;2023-06-22T02:00:48;100392.50;;;18.67;100.00
12349;BME280;5974;42.710;27.258;2023-06-22T02:03:19;100388.94;;;19.05;100.00
12349;BME280;5974;42.710;27.258;2023-06-22T02:05:50;100381.56;;;18.84;100.00
12349;BME280;5974;42.710;27.258;2023-06-22T02:08:21;100385.72;;;18.76;100.00
12349;BME280;5974;42.710;27.258;2023-06-22T02:10:49;100368.84;;;18.77;100.00
12349;BME280;5974;42.710;27.258;2023-06-22T02:13:18;100382.63;;;18.94;100.00
12349;BME280;5974;42.710;27.258;2023-06-22T02:15:46;100382.88;;;18.66;100.00
12349;BME280;5974;42.710;27.258;2023-06-22T02:18:14;100373.13;;;18.79;100.00
12349;BME280;5974;42.710;27.258;2023-06-22T02:20:42;100384.66;;;18.91;100.00
12349;BME280;5974;42.710;27.258;2023-06-22T02:23:09;100379.16;;;18.81;100.00
12349;BME280;5974;42.710;27.258;2023-06-22T02:25:36;100386.66;;;19.00;100.00
12349;BME280;5974;42.710;27.258;2023-06-22T02:28:04;100384.63;;;19.04;100.00
12349;BME280;5974;42.710;27.258;2023-06-22T02:30:31;100377.34;;;18.57;100.00
12349;BME280;5974;42.710;27.258;2023-06-22T02:32:58;100396.81;;;18.93;100.00
12349;BME280;5974;42.710;27.258;2023-06-22T02:35:25;100398.59;;;19.06;100.00
12349;BME280;5974;42.710;27.258;2023-06-22T02:37:58;100396.75;;;18.82;100.00
12349;BME280;5974;42.710;27.258;2023-06-22T02:40:26;100405.28;;;19.11;100.00
12349;BME280;5974;42.710;27.258;2023-06-22T02:42:53;100402.38;;;19.39;100.00
12349;BME280;5974;42.710;27.258;2023-06-22T02:45:20;100395.16;;;19.29;100.00
12349;BME280;5974;42.710;27.258;2023-06-22T02:47:47;100402.16;;;19.42;100.00
12349;BME280;5974;42.710;27.258;2023-06-22T02:50:14;100394.09;;;19.44;100.00
12349;BME280;5974;42.710;27.258;2023-06-22T02:52:41;100393.03;;;19.46;100.00
12349;BME280;5974;42.710;27.258;2023-06-22T02:55:10;100396.19;;;19.39;100.00
12349;BME280;5974;42.710;27.258;2023-06-22T02:57:36;100338.34;;;18.84;100.00
12349;BME280;5974;42.710;27.258;2023-06-22T03:00:10;100399.50;;;19.30;100.00
12349;BME280;5974;42.710;27.258;2023-06-22T03:02:43;100390.09;;;19.62;100.00
12349;BME280;5974;42.710;27.258;2023-06-22T03:05:11;100387.53;;;19.84;100.00
12349;BME280;5974;42.710;27.258;2023-06-22T03:07:40;100379.25;;;20.00;100.00
12349;BME280;5974;42.710;27.258;2023-06-22T03:10:10;100387.34;;;19.98;100.00
12349;BME280;5974;42.710;27.258;2023-06-22T03:12:37;100387.75;;;19.81;100.00
12349;BME280;5974;42.710;27.258;2023-06-22T03:15:05;100392.69;;;20.10;100.00
12349;BME280;5974;42.710;27.258;2023-06-22T03:17:33;100391.94;;;20.31;100.00
12349;BME280;5974;42.710;27.258;2023-06-22T03:20:00;100401.75;;;20.18;100.00
12349;BME280;5974;42.710;27.258;2023-06-22T03:22:31;100398.56;;;20.26;100.00
12349;BME280;5974;42.710;27.258;2023-06-22T03:24:58;100401.53;;;20.56;100.00
12349;BME280;5974;42.710;27.258;2023-06-22T03:27:26;100407.53;;;20.12;100.00
12349;BME280;5974;42.710;27.258;2023-06-22T03:29:53;100420.75;;;20.25;100.00
12349;BME280;5974;42.710;27.258;2023-06-22T03:32:20;100410.75;;;20.85;100.00
12349;BME280;5974;42.710;27.258;2023-06-22T03:34:47;100408.94;;;21.08;100.00
12349;BME280;5974;42.710;27.258;2023-06-22T03:37:14;100370.59;;;20.44;100.00
12349;BME280;5974;42.710;27.258;2023-06-22T03:39:41;100412.81;;;21.04;100.00
12349;BME280;5974;42.710;27.258;2023-06-22T03:42:08;100409.66;;;21.43;100.00
12349;BME280;5974;42.710;27.258;2023-06-22T03:44:37;100404.81;;;21.91;100.00
12349;BME280;5974;42.710;27.258;2023-06-22T03:47:04;100403.94;;;21.59;100.00
12349;BME280;5974;42.710;27.258;2023-06-22T03:49:32;100403.09;;;22.01;100.00
12349;BME280;5974;42.710;27.258;2023-06-22T03:52:00;100407.63;;;22.52;100.00
12349;BME280;5974;42.710;27.258;2023-06-22T03:54:28;100385.81;;;22.79;100.00
12349;BME280;5974;42.710;27.258;2023-06-22T03:56:54;100395.34;;;23.51;100.00
12349;BME280;5974;42.710;27.258;2023-06-22T03:59:21;100381.00;;;24.58;100.00
12349;BME280;5974;42.710;27.258;2023-06-22T04:01:50;100375.22;;;26.24;100.00
12349;BME280;5974;42.710;27.258;2023-06-22T04:04:17;100367.44;;;28.23;100.00
12349;BME280;5974;42.710;27.258;2023-06-22T04:06:44;100362.44;;;30.29;100.00
12349;BME280;5974;42.710;27.258;2023-06-22T04:09:11;100369.72;;;32.24;91.09
12349;BME280;5974;42.710;27.258;2023-06-22T04:11:38;100357.19;;;33.66;77.01
12349;BME280;5974;42.710;27.258;2023-06-22T04:14:05;100372.63;;;35.04;65.64
12349;BME280;5974;42.710;27.258;2023-06-22T04:16:32;100377.41;;;36.47;60.98
12349;BME280;5974;42.710;27.258;2023-06-22T04:19:00;100374.56;;;38.22;57.25
12349;BME280;5974;42.710;27.258;2023-06-22T04:21:27;100378.16;;;39.03;53.61
12349;BME280;5974;42.710;27.258;2023-06-22T04:23:54;100375.16;;;38.12;50.72
12349;BME280;5974;42.710;27.258;2023-06-22T04:26:21;100378.03;;;37.28;51.36
12349;BME280;5974;42.710;27.258;2023-06-22T04:28:48;100354.94;;;35.77;56.51
12349;BME280;5974;42.710;27.258;2023-06-22T04:31:17;100378.84;;;35.24;56.76
12349;BME280;5974;42.710;27.258;2023-06-22T04:33:45;100379.56;;;37.06;56.45
12349;BME280;5974;42.710;27.258;2023-06-22T04:36:13;100400.28;;;40.27;48.51
12349;BME280;5974;42.710;27.258;2023-06-22T04:38:40;100360.75;;;36.12;54.38
12349;BME280;5974;42.710;27.258;2023-06-22T04:41:07;100393.97;;;39.81;48.23
12349;BME280;5974;42.710;27.258;2023-06-22T04:43:39;100393.94;;;40.43;49.17
12349;BME280;5974;42.710;27.258;2023-06-22T04:46:06;100394.13;;;41.78;43.53
12349;BME280;5974;42.710;27.258;2023-06-22T04:48:33;100396.16;;;42.93;43.12
12349;BME280;5974;42.710;27.258;2023-06-22T04:51:00;100402.38;;;42.05;41.44
12349;BME280;5974;42.710;27.258;2023-06-22T04:53:30;100400.31;;;43.58;40.11
12349;BME280;5974;42.710;27.258;2023-06-22T04:55:57;100400.75;;;42.83;41.70
12349;BME280;5974;42.710;27.258;2023-06-22T04:58:24;100398.38;;;40.99;40.57
12349;BME280;5974;42.710;27.258;2023-06-22T05:00:54;100399.34;;;38.96;41.90
12349;BME280;5974;42.710;27.258;2023-06-22T05:03:22;100394.31;;;41.45;40.70
12349;BME280;5974;42.710;27.258;2023-06-22T05:05:51;100385.44;;;40.78;41.16
12349;BME280;5974;42.710;27.258;2023-06-22T05:08:19;100393.16;;;40.97;39.72
12349;BME280;5974;42.710;27.258;2023-06-22T05:10:47;100399.38;;;42.75;40.57
12349;BME280;5974;42.710;27.258;2023-06-22T05:13:14;100402.47;;;40.96;38.78
12349;BME280;5974;42.710;27.258;2023-06-22T05:15:41;100394.75;;;45.04;34.04
12349;BME280;5974;42.710;27.258;2023-06-22T05:18:08;100395.91;;;44.83;35.23
12349;BME280;5974;42.710;27.258;2023-06-22T05:20:37;100406.09;;;45.62;32.90
12349;BME280;5974;42.710;27.258;2023-06-22T05:23:04;100402.63;;;44.16;33.12
12349;BME280;5974;42.710;27.258;2023-06-22T05:25:31;100403.34;;;45.62;31.23
12349;BME280;5974;42.710;27.258;2023-06-22T05:27:59;100392.66;;;44.10;32.60
12349;BME280;5974;42.710;27.258;2023-06-22T05:30:27;100409.28;;;45.40;32.08
12349;BME280;5974;42.710;27.258;2023-06-22T05:32:54;100406.00;;;47.02;31.09
12349;BME280;5974;42.710;27.258;2023-06-22T05:35:20;100395.41;;;46.57;30.24
12349;BME280;5974;42.710;27.258;2023-06-22T05:37:47;100405.53;;;46.04;31.31
12349;BME280;5974;42.710;27.258;2023-06-22T05:40:14;100412.91;;;46.81;29.43
12349;BME280;5974;42.710;27.258;2023-06-22T05:42:41;100406.25;;;43.25;31.93
12349;BME280;5974;42.710;27.258;2023-06-22T05:45:10;100404.00;;;44.39;31.16
12349;BME280;5974;42.710;27.258;2023-06-22T05:47:36;100395.84;;;43.42;32.60
12349;BME280;5974;42.710;27.258;2023-06-22T05:50:04;100398.03;;;43.35;32.32
12349;BME280;5974;42.710;27.258;2023-06-22T05:52:33;100396.09;;;41.56;34.12
12349;BME280;5974;42.710;27.258;2023-06-22T05:55:02;100352.78;;;40.76;35.77
12349;BME280;5974;42.710;27.258;2023-06-22T05:57:29;100391.53;;;40.46;36.00
12349;BME280;5974;42.710;27.258;2023-06-22T05:59:55;100395.91;;;40.97;35.34
12349;BME280;5974;42.710;27.258;2023-06-22T06:02:24;100383.91;;;41.47;34.92
12349;BME280;5974;42.710;27.258;2023-06-22T06:04:51;100390.22;;;40.16;36.63
12349;BME280;5974;42.710;27.258;2023-06-22T06:07:18;100398.09;;;41.65;35.63
12349;BME280;5974;42.710;27.258;2023-06-22T06:09:45;100397.88;;;41.72;34.53
12349;BME280;5974;42.710;27.258;2023-06-22T06:12:13;100399.34;;;42.06;34.06
12349;BME280;5974;42.710;27.258;2023-06-22T06:14:40;100394.38;;;42.03;34.01
12349;BME280;5974;42.710;27.258;2023-06-22T06:17:07;100407.97;;;41.61;34.83
12349;BME280;5974;42.710;27.258;2023-06-22T06:19:35;100403.94;;;40.16;35.91
12349;BME280;5974;42.710;27.258;2023-06-22T06:22:02;100378.97;;;40.00;35.19
12349;BME280;5974;42.710;27.258;2023-06-22T06:24:29;100401.69;;;39.04;36.45
12349;BME280;5974;42.710;27.258;2023-06-22T06:26:56;100403.50;;;41.12;35.00
12349;BME280;5974;42.710;27.258;2023-06-22T06:29:23;100395.53;;;38.74;36.33
12349;BME280;5974;42.710;27.258;2023-06-22T06:31:50;100394.44;;;38.17;36.79
12349;BME280;5974;42.710;27.258;2023-06-22T06:34:17;100390.25;;;39.19;36.17
12349;BME280;5974;42.710;27.258;2023-06-22T06:36:46;100388.97;;;38.29;36.88
12349;BME280;5974;42.710;27.258;2023-06-22T06:39:13;100402.88;;;39.60;35.14
12349;BME280;5974;42.710;27.258;2023-06-22T06:41:41;100394.22;;;39.00;35.32
12349;BME280;5974;42.710;27.258;2023-06-22T06:44:08;100389.78;;;39.22;34.57
12349;BME280;5974;42.710;27.258;2023-06-22T06:46:35;100389.06;;;37.99;35.87
12349;BME280;5974;42.710;27.258;2023-06-22T06:49:02;100388.97;;;40.40;35.55
12349;BME280;5974;42.710;27.258;2023-06-22T06:51:29;100402.81;;;40.83;33.97
12349;BME280;5974;42.710;27.258;2023-06-22T06:53:57;100394.03;;;40.65;33.69
12349;BME280;5974;42.710;27.258;2023-06-22T06:56:24;100396.19;;;40.13;34.14
12349;BME280;5974;42.710;27.258;2023-06-22T06:58:51;100398.34;;;40.44;34.18
12349;BME280;5974;42.710;27.258;2023-06-22T07:01:18;100401.03;;;42.39;32.59
12349;BME280;5974;42.710;27.258;2023-06-22T07:03:46;100412.25;;;41.31;32.05
12349;BME280;5974;42.710;27.258;2023-06-22T07:06:13;100404.94;;;42.16;30.75
12349;BME280;5974;42.710;27.258;2023-06-22T07:08:41;100401.72;;;41.93;31.92
12349;BME280;5974;42.710;27.258;2023-06-22T07:11:10;100398.47;;;39.19;33.15
12349;BME280;5974;42.710;27.258;2023-06-22T07:13:37;100396.75;;;38.67;33.73
12349;BME280;5974;42.710;27.258;2023-06-22T07:16:04;100395.97;;;38.13;36.10
12349;BME280;5974;42.710;27.258;2023-06-22T07:18:31;100396.69;;;37.13;36.33
12349;BME280;5974;42.710;27.258;2023-06-22T07:20:58;100395.41;;;36.54;36.44
12349;BME280;5974;42.710;27.258;2023-06-22T07:23:25;100386.97;;;37.17;36.72
12349;BME280;5974;42.710;27.258;2023-06-22T07:25:52;100391.13;;;40.21;33.54
12349;BME280;5974;42.710;27.258;2023-06-22T07:28:20;100391.03;;;41.04;32.71
12349;BME280;5974;42.710;27.258;2023-06-22T07:30:47;100401.53;;;39.91;33.89
12349;BME280;5974;42.710;27.258;2023-06-22T07:33:14;100392.38;;;37.71;35.55
12349;BME280;5974;42.710;27.258;2023-06-22T07:35:40;100390.91;;;39.49;33.94
12349;BME280;5974;42.710;27.258;2023-06-22T07:38:07;100388.53;;;39.41;33.78
12349;BME280;5974;42.710;27.258;2023-06-22T07:40:35;100394.16;;;39.35;34.43
12349;BME280;5974;42.710;27.258;2023-06-22T07:43:01;100395.22;;;39.90;33.28
12349;BME280;5974;42.710;27.258;2023-06-22T07:45:30;100405.38;;;41.06;31.16
12349;BME280;5974;42.710;27.258;2023-06-22T07:47:58;100401.84;;;38.40;33.47
12349;BME280;5974;42.710;27.258;2023-06-22T07:50:25;100399.00;;;38.35;34.44
12349;BME280;5974;42.710;27.258;2023-06-22T07:52:52;100389.47;;;39.75;33.54
12349;BME280;5974;42.710;27.258;2023-06-22T07:55:19;100385.72;;;40.98;32.55
12349;BME280;5974;42.710;27.258;2023-06-22T07:57:48;100375.66;;;39.98;32.84
12349;BME280;5974;42.710;27.258;2023-06-22T08:00:17;100391.28;;;37.72;35.32
12349;BME280;5974;42.710;27.258;2023-06-22T08:02:46;100382.78;;;37.32;36.65
12349;BME280;5974;42.710;27.258;2023-06-22T08:05:14;100389.91;;;35.73;37.46
12349;BME280;5974;42.710;27.258;2023-06-22T08:07:42;100382.34;;;34.60;40.15
12349;BME280;5974;42.710;27.258;2023-06-22T08:10:11;100392.34;;;33.34;41.44
12349;BME280;5974;42.710;27.258;2023-06-22T08:12:38;100388.00;;;33.05;41.44
12349;BME280;5974;42.710;27.258;2023-06-22T08:15:06;100396.34;;;32.20;42.77
12349;BME280;5974;42.710;27.258;2023-06-22T08:17:36;100386.28;;;32.35;42.85
12349;BME280;5974;42.710;27.258;2023-06-22T08:20:05;100383.25;;;32.72;43.38
12349;BME280;5974;42.710;27.258;2023-06-22T08:22:35;100379.88;;;32.70;43.41
12349;BME280;5974;42.710;27.258;2023-06-22T08:25:02;100377.88;;;32.86;41.42
12349;BME280;5974;42.710;27.258;2023-06-22T08:27:29;100377.97;;;32.15;42.56
12349;BME280;5974;42.710;27.258;2023-06-22T08:29:57;100383.91;;;32.53;41.40
12349;BME280;5974;42.710;27.258;2023-06-22T08:32:24;100379.06;;;32.21;42.27
12349;BME280;5974;42.710;27.258;2023-06-22T08:34:52;100374.41;;;32.36;42.71
12349;BME280;5974;42.710;27.258;2023-06-22T08:37:20;100380.91;;;32.14;42.19
12349;BME280;5974;42.710;27.258;2023-06-22T08:39:56;100384.59;;;32.34;41.35
12349;BME280;5974;42.710;27.258;2023-06-22T08:42:22;100377.72;;;32.10;42.44
12349;BME280;5974;42.710;27.258;2023-06-22T08:44:51;100363.91;;;31.84;43.96
12349;BME280;5974;42.710;27.258;2023-06-22T08:47:19;100369.31;;;31.84;43.08
12349;BME280;5974;42.710;27.258;2023-06-22T08:49:46;100367.22;;;31.80;43.56
12349;BME280;5974;42.710;27.258;2023-06-22T08:52:12;100362.31;;;31.68;43.72
12349;BME280;5974;42.710;27.258;2023-06-22T08:54:41;100367.34;;;31.72;43.31
12349;BME280;5974;42.710;27.258;2023-06-22T08:57:08;100329.84;;;31.90;43.21
12349;BME280;5974;42.710;27.258;2023-06-22T08:59:34;100374.19;;;32.38;44.52
12349;BME280;5974;42.710;27.258;2023-06-22T09:02:01;100365.28;;;32.16;43.94
12349;BME280;5974;42.710;27.258;2023-06-22T09:04:28;100375.06;;;32.66;43.86
12349;BME280;5974;42.710;27.258;2023-06-22T09:06:55;100366.31;;;32.70;43.70
12349;BME280;5974;42.710;27.258;2023-06-22T09:09:22;100365.81;;;32.05;42.78
12349;BME280;5974;42.710;27.258;2023-06-22T09:11:51;100384.75;;;32.54;43.57
12349;BME280;5974;42.710;27.258;2023-06-22T09:14:17;100383.31;;;32.30;43.39
12349;BME280;5974;42.710;27.258;2023-06-22T09:16:44;100367.59;;;31.77;43.34
12349;BME280;5974;42.710;27.258;2023-06-22T09:19:11;100384.66;;;31.56;45.47
12349;BME280;5974;42.710;27.258;2023-06-22T09:21:38;100386.22;;;31.86;46.61
12349;BME280;5974;42.710;27.258;2023-06-22T09:24:06;100374.78;;;32.05;46.27
12349;BME280;5974;42.710;27.258;2023-06-22T09:26:33;100338.69;;;31.56;46.13
12349;BME280;5974;42.710;27.258;2023-06-22T09:29:04;100378.25;;;32.48;44.85
12349;BME280;5974;42.710;27.258;2023-06-22T09:31:31;100376.97;;;32.44;44.60
12349;BME280;5974;42.710;27.258;2023-06-22T09:33:58;100370.22;;;31.91;45.77
12349;BME280;5974;42.710;27.258;2023-06-22T09:36:25;100375.31;;;31.80;45.82
12349;BME280;5974;42.710;27.258;2023-06-22T09:38:52;100374.31;;;31.81;45.77
12349;BME280;5974;42.710;27.258;2023-06-22T09:41:21;100384.16;;;32.09;46.38
12349;BME280;5974;42.710;27.258;2023-06-22T09:43:48;100368.38;;;32.13;47.72
12349;BME280;5974;42.710;27.258;2023-06-22T09:46:17;100367.03;;;32.24;46.51
12349;BME280;5974;42.710;27.258;2023-06-22T09:48:43;100372.38;;;31.96;46.79
12349;BME280;5974;42.710;27.258;2023-06-22T09:51:11;100371.91;;;31.50;47.40
12349;BME280;5974;42.710;27.258;2023-06-22T09:53:38;100369.09;;;31.29;47.86
12349;BME280;5974;42.710;27.258;2023-06-22T09:56:05;100334.00;;;31.14;48.03
12349;BME280;5974;42.710;27.258;2023-06-22T09:58:32;100354.91;;;31.56;46.98
12349;BME280;5974;42.710;27.258;2023-06-22T10:00:59;100368.44;;;31.77;47.88
12349;BME280;5974;42.710;27.258;2023-06-22T10:03:27;100355.34;;;31.59;47.57
12349;BME280;5974;42.710;27.258;2023-06-22T10:05:54;100375.31;;;32.01;47.03
12349;BME280;5974;42.710;27.258;2023-06-22T10:08:21;100372.03;;;31.84;47.28
12349;BME280;5974;42.710;27.258;2023-06-22T10:10:48;100367.78;;;31.96;49.26
12349;BME280;5974;42.710;27.258;2023-06-22T10:13:15;100362.63;;;32.50;48.45
12349;BME280;5974;42.710;27.258;2023-06-22T10:15:42;100318.31;;;32.58;46.89
12349;BME280;5974;42.710;27.258;2023-06-22T10:18:10;100359.25;;;32.69;48.18
12349;BME280;5974;42.710;27.258;2023-06-22T10:20:39;100359.03;;;32.15;47.25
12349;BME280;5974;42.710;27.258;2023-06-22T10:23:06;100367.38;;;31.57;47.27
12349;BME280;5974;42.710;27.258;2023-06-22T10:25:32;100344.47;;;31.02;48.15
12349;BME280;5974;42.710;27.258;2023-06-22T10:27:59;100357.78;;;31.54;47.03
12349;BME280;5974;42.710;27.258;2023-06-22T10:30:26;100355.22;;;31.67;47.50
12349;BME280;5974;42.710;27.258;2023-06-22T10:32:54;100359.88;;;32.16;48.39
12349;BME280;5974;42.710;27.258;2023-06-22T10:35:21;100349.66;;;32.39;46.35
12349;BME280;5974;42.710;27.258;2023-06-22T10:37:49;100345.44;;;32.30;47.15
12349;BME280;5974;42.710;27.258;2023-06-22T10:40:17;100329.50;;;32.48;47.95
12349;BME280;5974;42.710;27.258;2023-06-22T10:42:44;100339.50;;;32.76;46.82
12349;BME280;5974;42.710;27.258;2023-06-22T10:45:11;100344.38;;;32.31;47.25
12349;BME280;5974;42.710;27.258;2023-06-22T10:47:39;100346.97;;;31.97;48.78
12349;BME280;5974;42.710;27.258;2023-06-22T10:50:08;100357.78;;;32.39;48.32
12349;BME280;5974;42.710;27.258;2023-06-22T10:52:35;100337.38;;;32.43;47.47
12349;BME280;5974;42.710;27.258;2023-06-22T10:55:04;100320.66;;;32.33;46.20
12349;BME280;5974;42.710;27.258;2023-06-22T10:57:31;100321.41;;;32.20;46.67
12349;BME280;5974;42.710;27.258;2023-06-22T10:59:57;100311.47;;;32.62;47.12
12349;BME280;5974;42.710;27.258;2023-06-22T11:02:24;100301.13;;;33.13;45.92
12349;BME280;5974;42.710;27.258;2023-06-22T11:04:53;100269.59;;;32.64;45.29
12349;BME280;5974;42.710;27.258;2023-06-22T11:07:20;100311.03;;;32.99;46.15
12349;BME280;5974;42.710;27.258;2023-06-22T11:09:47;100303.84;;;33.13;46.03
12349;BME280;5974;42.710;27.258;2023-06-22T11:12:15;100312.13;;;32.64;47.74
12349;BME280;5974;42.710;27.258;2023-06-22T11:14:42;100326.19;;;32.53;46.33
12349;BME280;5974;42.710;27.258;2023-06-22T11:17:09;100322.13;;;32.63;47.31
12349;BME280;5974;42.710;27.258;2023-06-22T11:19:36;100318.91;;;33.35;45.87
12349;BME280;5974;42.710;27.258;2023-06-22T11:22:03;100327.16;;;32.66;45.96
12349;BME280;5974;42.710;27.258;2023-06-22T11:24:31;100324.50;;;32.45;47.01
12349;BME280;5974;42.710;27.258;2023-06-22T11:26:58;100327.19;;;31.96;47.74
12349;BME280;5974;42.710;27.258;2023-06-22T11:29:27;100325.72;;;31.73;48.96
12349;BME280;5974;42.710;27.258;2023-06-22T11:31:53;100335.69;;;31.72;48.03
12349;BME280;5974;42.710;27.258;2023-06-22T11:34:20;100326.78;;;31.72;48.13
12349;BME280;5974;42.710;27.258;2023-06-22T11:36:47;100327.28;;;32.03;47.32
12349;BME280;5974;42.710;27.258;2023-06-22T11:39:14;100323.16;;;31.86;47.73
12349;BME280;5974;42.710;27.258;2023-06-22T11:41:41;100322.53;;;32.05;47.67
12349;BME280;5974;42.710;27.258;2023-06-22T11:44:08;100327.63;;;32.00;48.11
12349;BME280;5974;42.710;27.258;2023-06-22T11:46:36;100332.78;;;32.44;48.02
12349;BME280;5974;42.710;27.258;2023-06-22T11:49:04;100330.13;;;32.50;46.78
12349;BME280;5974;42.710;27.258;2023-06-22T11:51:31;100331.63;;;32.25;46.06
12349;BME280;5974;42.710;27.258;2023-06-22T11:53:58;100303.69;;;32.52;47.11
12349;BME280;5974;42.710;27.258;2023-06-22T11:56:25;100330.94;;;32.44;45.99
12349;BME280;5974;42.710;27.258;2023-06-22T11:58:53;100326.38;;;31.96;47.03
12349;BME280;5974;42.710;27.258;2023-06-22T12:01:20;100315.66;;;31.88;47.58
12349;BME280;5974;42.710;27.258;2023-06-22T12:03:49;100321.59;;;31.98;47.07
12349;BME280;5974;42.710;27.258;2023-06-22T12:06:19;100325.41;;;32.31;46.00
12349;BME280;5974;42.710;27.258;2023-06-22T12:08:46;100321.13;;;32.43;45.22
12349;BME280;5974;42.710;27.258;2023-06-22T12:11:12;100320.78;;;32.25;45.26
12349;BME280;5974;42.710;27.258;2023-06-22T12:13:39;100325.88;;;32.35;46.01
12349;BME280;5974;42.710;27.258;2023-06-22T12:16:06;100326.34;;;33.13;45.31
12349;BME280;5974;42.710;27.258;2023-06-22T12:18:33;100330.69;;;33.08;45.91
12349;BME280;5974;42.710;27.258;2023-06-22T12:21:01;100323.19;;;32.69;50.48
12349;BME280;5974;42.710;27.258;2023-06-22T12:23:28;100328.03;;;32.18;52.26
12349;BME280;5974;42.710;27.258;2023-06-22T12:25:55;100323.16;;;31.86;54.04
12349;BME280;5974;42.710;27.258;2023-06-22T12:28:22;100322.38;;;31.92;53.46
12349;BME280;5974;42.710;27.258;2023-06-22T12:30:49;100320.69;;;31.69;53.71
12349;BME280;5974;42.710;27.258;2023-06-22T12:33:16;100323.97;;;31.44;54.38
12349;BME280;5974;42.710;27.258;2023-06-22T12:35:43;100317.28;;;31.82;54.33
12349;BME280;5974;42.710;27.258;2023-06-22T12:38:12;100310.06;;;32.66;53.97
12349;BME280;5974;42.710;27.258;2023-06-22T12:40:39;100318.63;;;32.42;53.66
12349;BME280;5974;42.710;27.258;2023-06-22T12:43:06;100320.41;;;32.56;53.94
12349;BME280;5974;42.710;27.258;2023-06-22T12:45:34;100321.91;;;32.37;53.71
12349;BME280;5974;42.710;27.258;2023-06-22T12:48:01;100282.19;;;31.89;54.46
12349;BME280;5974;42.710;27.258;2023-06-22T12:50:28;100317.69;;;31.58;55.02